KEVB/EVB METAR and TAF weather

Enter ICAO airport designator
Station Type Date Time Source
KEVB METAR 2019/10/23 01:47 UTC NOAA

KEVB 230147Z 00000KT 10SM CLR 24/23 A3001 RMK LAST


Station Type Date Time Source
KEVB Decoded METAR 2019/10/23 01:47 UTC NOAA

New Smyrna Beach, New Smyrna Beach Municipal Airport, FL, United States (KEVB) 29-03-20N 080-56-54W
Oct 22, 2019 - 09:47 PM EDT / 2019.10.23 0147 UTC
Wind: Calm:0
Visibility: 10 mile(s):0
Sky conditions: clear
Temperature: 75 F (24 C)
Dew Point: 73 F (23 C)
Relative Humidity: 94%
Pressure (altimeter): 30.01 in. Hg (1016 hPa)
ob: KEVB 230147Z 00000KT 10SM CLR 24/23 A3001 RMK LAST
cycle: 2

Station Type Date Time Source
KEVB TAF UTC NOAA

Error!

Example: see airport list